Terminal Aerodrome Forecast
Issued by NWS Charleston, WV

Current Version | Previous Version | Graphics & Text | Print | Product List | Glossary On
Versions: 1 2 3 4 5 6 7 8 9 10 11 12 13 14 15 16 17 18 19 20 21 22 23 24 25 26 27 28 29
000
FTUS41 KRLX 031003 AAB
TAFHTS
TAF AMD
KHTS 031003Z 0310/0406 09003KT 4SM BR BKN020
     FM031300 12004KT 6SM SHRA VCTS BKN015CB
     FM031800 16004KT 3SM TSRA OVC015CB
     FM032100 24004KT 5SM SHRA BKN025
     FM040200 VRB03KT 6SM BR BKN020=

USA.gov is the U.S. government's official web portal to all federal, state and local government web resources and services.